.
WxDataArchive / Data Records for 2012-04-07
2012-04-06 April 2012 2012-04-08

Data Records for Saturday, 07 April 2012

Time	Temp	Chill	HIndex	Humid	Dewpt	 Wind 	HiWind	WindDir	Rain 	Barom 
-----	----	-----	------	-----	-----	------	------	-------	-----	----- 
00:00	37.3	37.3	37.3	72	29.1	0	0	---	0.00	30.255 
00:05	37.0	37.0	37.0	72	28.8	0	0	---	0.00	30.255 
00:10	36.9	36.9	36.9	73	29.1	0	0	---	0.00	30.255 
00:15	36.6	36.6	36.6	73	28.8	0	0	---	0.00	30.253 
00:20	36.6	36.6	36.6	74	29.1	0	0	---	0.00	30.253 
00:25	36.5	36.5	36.5	74	29.0	0	0	---	0.00	30.253 
00:30	36.3	36.3	36.3	74	28.8	0	0	---	0.00	30.254 
00:35	36.2	36.2	36.2	75	29.1	0	0	---	0.00	30.254 
00:40	36.2	36.2	36.2	77	29.7	0	0	---	0.00	30.254 
00:45	36.0	36.0	36.0	78	29.8	0	0	---	0.00	30.254 
00:50	35.9	35.9	35.9	78	29.7	0	0	---	0.00	30.254 
00:55	35.9	35.9	35.9	79	30.0	0	0	---	0.00	30.254 
01:00	35.8	35.8	35.8	80	30.2	0	0	---	0.00	30.252 
01:05	35.8	35.8	35.8	81	30.6	0	0	---	0.00	30.252 
01:10	35.5	35.5	35.5	81	30.3	0	0	---	0.00	30.252 
01:15	35.3	35.3	35.3	81	30.1	0	0	---	0.00	30.252 
01:20	35.3	35.3	35.3	84	31.0	0	0	---	0.00	30.252 
01:25	35.2	35.2	35.2	84	30.9	0	0	---	0.00	30.252 
01:30	35.0	35.0	35.0	84	30.7	0	0	---	0.00	30.253 
01:35	34.9	34.9	34.9	84	30.6	0	0	---	0.00	30.253 
01:40	34.7	34.7	34.7	84	30.4	0	0	---	0.00	30.253 
01:45	34.6	34.6	34.6	84	30.3	0	0	---	0.00	30.252 
01:50	34.4	34.4	34.4	84	30.1	0	0	---	0.00	30.252 
01:55	34.3	34.3	34.3	84	30.0	0	0	---	0.00	30.252 
02:00	34.1	34.1	34.1	84	29.8	0	0	---	0.00	30.251 
02:05	34.0	34.0	34.0	84	29.7	0	0	---	0.00	30.251 
02:10	34.0	34.0	34.0	84	29.7	0	0	---	0.00	30.251 
02:15	33.8	33.8	33.8	84	29.5	0	0	---	0.00	30.251 
02:20	33.7	33.7	33.7	84	29.4	0	0	---	0.00	30.251 
02:25	33.4	33.4	33.4	84	29.1	0	0	---	0.00	30.251 
02:30	33.2	33.2	33.2	84	28.9	0	0	---	0.00	30.247 
02:35	33.1	33.1	33.1	83	28.5	0	0	---	0.00	30.247 
02:40	32.9	32.9	32.9	83	28.3	0	0	---	0.00	30.247 
02:45	32.8	32.8	32.8	83	28.2	0	0	---	0.00	30.246 
02:50	32.7	32.7	32.7	83	28.1	0	0	---	0.00	30.246 
02:55	32.7	32.7	32.7	84	28.4	0	0	---	0.00	30.246 
03:00	32.7	32.7	32.7	84	28.4	0	0	---	0.00	30.245 
03:05	32.7	32.7	32.7	84	28.4	0	0	---	0.00	30.245 
03:10	32.7	32.7	32.7	84	28.4	0	0	---	0.00	30.245 
03:15	32.5	32.5	32.5	84	28.2	0	0	---	0.00	30.249 
03:20	32.5	32.5	32.5	85	28.5	0	0	---	0.00	30.249 
03:25	32.4	32.4	32.4	86	28.7	0	0	---	0.00	30.249 
03:30	32.2	32.2	32.2	86	28.5	0	0	---	0.00	30.249 
03:35	32.2	32.2	32.2	86	28.5	0	0	---	0.00	30.249 
03:40	32.4	32.4	32.4	86	28.7	0	0	---	0.00	30.249 
03:45	32.4	32.4	32.4	87	29.0	0	0	---	0.00	30.253 
03:50	32.2	32.2	32.2	87	28.8	0	0	---	0.00	30.253 
03:55	32.1	32.1	32.1	87	28.7	0	0	---	0.00	30.253 
04:00	31.9	31.9	31.9	87	28.5	0	0	---	0.00	30.252 
04:05	31.9	31.9	31.9	88	28.8	0	0	---	0.00	30.252 
04:10	31.9	31.9	31.9	88	28.8	0	0	---	0.00	30.252 
04:15	31.8	31.8	31.8	88	28.7	0	0	---	0.00	30.253 
04:20	31.8	31.8	31.8	88	28.7	0	0	---	0.00	30.253 
04:25	31.6	31.6	31.6	88	28.5	0	0	---	0.00	30.253 
04:30	31.5	31.5	31.5	88	28.4	0	0	---	0.00	30.257 
04:35	31.2	31.2	31.2	88	28.1	0	0	---	0.00	30.257 
04:40	31.2	31.2	31.2	88	28.1	0	0	---	0.00	30.257 
04:45	31.0	31.0	31.0	88	27.9	0	0	---	0.00	30.264 
04:50	30.9	30.9	30.9	88	27.8	0	0	---	0.00	30.264 
04:55	30.7	30.7	30.7	89	27.8	0	0	---	0.00	30.264 
05:00	30.6	30.6	30.6	89	27.8	0	0	---	0.00	30.269 
05:05	30.6	30.6	30.6	89	27.8	0	0	---	0.00	30.269 
05:10	30.4	30.4	30.4	89	27.6	0	0	---	0.00	30.269 
05:15	30.3	30.3	30.3	89	27.5	0	0	---	0.00	30.271 
05:20	30.1	30.1	30.1	89	27.3	0	0	---	0.00	30.271 
05:25	30.1	30.1	30.1	89	27.3	0	0	---	0.00	30.271 
05:30	30.0	30.0	30.0	89	27.2	0	0	---	0.00	30.278 
05:35	30.0	30.0	30.0	89	27.2	0	0	---	0.00	30.278 
05:40	29.8	29.8	29.8	89	27.0	0	0	---	0.00	30.278 
05:45	29.8	29.8	29.8	89	27.0	0	0	---	0.00	30.274 
05:50	29.7	29.7	29.7	90	27.1	0	0	---	0.00	30.274 
05:55	29.5	29.5	29.5	90	26.9	0	0	---	0.00	30.274 
06:00	29.5	29.5	29.5	90	26.9	0	0	---	0.00	30.282 
06:05	29.5	29.5	29.5	90	26.9	0	0	---	0.00	30.282 
06:10	29.4	29.4	29.4	90	26.8	0	0	---	0.00	30.282 
06:15	29.4	29.4	29.4	90	26.8	0	0	---	0.00	30.288 
06:20	29.3	29.3	29.3	90	26.7	0	0	---	0.00	30.288 
06:25	29.3	29.3	29.3	90	26.7	0	0	---	0.00	30.288 
06:30	29.1	29.1	29.1	90	26.5	0	0	---	0.00	30.292 
06:35	29.1	29.1	29.1	90	26.5	0	0	---	0.00	30.292 
06:40	29.1	29.1	29.1	90	26.5	0	0	---	0.00	30.292 
06:45	29.0	29.0	29.0	90	26.4	0	0	---	0.00	30.296 
06:50	29.0	29.0	29.0	90	26.4	0	0	---	0.00	30.296 
06:55	28.8	28.8	28.8	90	26.2	0	0	---	0.00	30.296 
07:00	28.8	28.8	28.8	90	26.2	0	0	---	0.00	30.304 
07:05	28.7	28.7	28.7	90	26.1	0	0	---	0.00	30.304 
07:10	28.7	28.7	28.7	90	26.1	0	0	---	0.00	30.304 
07:15	28.7	28.7	28.7	90	26.1	0	0	---	0.00	30.307 
07:20	28.7	28.7	28.7	90	26.1	0	0	---	0.00	30.307 
07:25	28.7	28.7	28.7	90	26.1	0	0	---	0.00	30.307 
07:30	28.7	28.7	28.7	90	26.1	0	0	---	0.00	30.310 
07:35	28.7	28.7	28.7	91	26.4	0	0	---	0.00	30.310 
07:40	28.8	28.8	28.8	91	26.5	0	1	90	0.00	30.310 
07:45	29.0	29.0	29.0	91	26.7	0	0	---	0.00	30.314 
07:50	29.3	29.3	29.3	91	27.0	0	0	---	0.00	30.314 
07:55	29.4	29.4	29.4	91	27.1	0	0	---	0.00	30.314 
08:00	29.7	29.7	29.7	91	27.4	0	0	---	0.00	30.321 
08:05	30.0	30.0	30.0	91	27.7	0	0	---	0.00	30.321 
08:10	30.4	30.4	30.4	91	28.1	0	0	---	0.00	30.321 
08:15	31.0	31.0	31.0	91	28.7	0	0	---	0.00	30.327 
08:20	31.8	31.8	31.8	92	29.7	0	0	---	0.00	30.327 
08:25	32.7	32.7	32.7	92	30.6	0	0	---	0.00	30.327 
08:30	33.5	33.5	33.5	91	31.2	0	0	---	0.00	30.326 
08:35	34.6	34.6	34.6	91	32.2	0	0	---	0.00	30.326 
08:40	35.5	35.5	35.5	90	32.9	0	0	---	0.00	30.326 
08:45	36.3	36.3	36.3	90	33.7	0	0	---	0.00	30.331 
08:50	37.5	37.5	37.5	89	34.6	0	0	---	0.00	30.331 
08:55	38.5	38.5	38.5	88	35.3	0	0	---	0.00	30.331 
09:00	39.6	39.6	39.6	84	35.2	0	0	---	0.00	30.333 
09:05	40.8	40.8	40.8	77	34.2	0	0	---	0.00	30.333 
09:10	41.8	41.8	41.8	72	33.4	0	0	---	0.00	30.333 
09:15	42.5	42.5	42.5	66	32.0	0	0	---	0.00	30.341 
09:20	43.5	43.5	43.5	60	30.5	0	0	---	0.00	30.341 
09:25	44.5	44.5	44.5	56	29.8	0	1	90	0.00	30.341 
09:30	45.4	45.4	45.4	53	29.3	0	1	90	0.00	30.335 
09:35	46.1	46.1	46.1	51	29.0	0	1	90	0.00	30.335 
09:40	46.8	46.8	46.8	52	30.1	0	1	90	0.00	30.335 
09:45	47.3	47.3	47.3	48	28.6	0	1	90	0.00	30.332 
09:50	47.7	47.7	47.7	44	26.9	0	2	90	0.00	30.332 
09:55	48.5	48.5	48.5	45	28.1	0	1	90	0.00	30.332 
10:00	49.2	49.2	49.2	45	28.8	0	2	90	0.00	30.329 
10:05	49.9	49.9	49.9	45	29.4	0	2	90	0.00	30.329 
10:10	50.5	50.5	50.5	40	27.1	1	4	90	0.00	30.329 
10:15	51.0	51.0	51.0	41	28.1	1	4	90	0.00	30.331 
10:20	51.7	51.7	51.7	39	27.6	0	3	90	0.00	30.331 
10:25	52.3	52.3	52.3	39	28.1	1	2	90	0.00	30.331 
10:30	53.2	53.2	53.2	41	30.1	0	1	90	0.00	30.329 
10:35	54.1	54.1	54.1	37	28.4	0	2	90	0.00	30.329 
10:40	54.8	54.8	54.8	38	29.7	0	2	90	0.00	30.329 
10:45	55.1	55.1	55.1	40	31.2	1	3	270	0.00	30.324 
10:50	55.3	55.3	55.3	35	28.1	1	3	68	0.00	30.324 
10:55	55.6	55.6	55.6	33	27.0	1	4	68	0.00	30.324 
11:00	55.9	55.9	55.9	33	27.2	1	3	90	0.00	30.311 
11:05	56.0	56.0	56.0	34	28.0	1	4	68	0.00	30.311 
11:10	56.3	56.3	56.3	34	28.3	1	3	90	0.00	30.311 
11:15	56.7	56.7	56.7	32	27.2	1	4	90	0.00	30.312 
11:20	57.0	57.0	57.0	34	28.9	1	3	90	0.00	30.312 
11:25	57.2	57.2	57.2	31	26.8	1	3	112	0.00	30.312 
11:30	57.8	57.8	57.8	31	27.4	1	4	90	0.00	30.311 
11:35	57.6	57.6	57.6	28	24.7	2	5	112	0.00	30.311 
11:40	58.0	58.0	58.0	31	27.5	1	3	112	0.00	30.311 
11:45	58.3	58.3	58.3	29	26.2	1	4	112	0.00	30.309 
11:50	58.7	58.7	58.7	30	27.4	1	3	112	0.00	30.309 
11:55	59.2	59.2	59.2	27	25.2	1	4	135	0.00	30.309 
12:00	59.3	59.3	59.3	28	26.2	1	3	68	0.00	30.306 
12:05	59.3	59.3	59.3	28	26.2	1	3	248	0.00	30.306 
12:10	59.2	59.2	59.2	27	25.2	1	3	270	0.00	30.306 
12:15	59.3	59.3	59.3	28	26.2	2	4	270	0.00	30.302 
12:20	59.8	59.8	59.8	25	23.9	1	3	112	0.00	30.302 
12:25	59.8	59.8	59.8	27	25.8	1	3	292	0.00	30.302 
12:30	59.9	59.9	59.9	29	27.6	0	3	292	0.00	30.304 
12:35	60.2	60.2	60.2	25	24.3	1	4	68	0.00	30.304 
12:40	60.9	60.9	60.9	28	27.6	1	4	68	0.00	30.304 
12:45	61.2	61.2	61.2	26	26.0	1	3	90	0.00	30.305 
12:50	61.0	61.0	61.0	28	27.7	1	3	90	0.00	30.305 
12:55	61.2	61.2	61.2	28	27.8	0	1	90	0.00	30.305 
13:00	61.8	61.8	61.8	25	25.6	1	3	90	0.00	30.296 
13:05	62.4	62.4	62.4	24	25.1	0	3	248	0.00	30.296 
13:10	62.4	62.4	62.4	25	26.1	1	2	248	0.00	30.296 
13:15	62.3	62.3	62.3	27	27.9	0	2	135	0.00	30.296 
13:20	62.4	62.4	62.4	24	25.1	1	2	315	0.00	30.296 
13:25	62.4	62.4	62.4	21	22.0	1	3	292	0.00	30.296 
13:30	62.1	62.1	62.1	22	22.8	1	4	248	0.00	30.294 
13:35	62.3	62.3	62.3	28	28.8	1	4	248	0.00	30.294 
13:40	62.6	62.6	62.6	22	23.2	0	2	248	0.00	30.294 
13:45	62.7	62.7	62.7	25	26.4	1	4	112	0.00	30.283 
13:50	62.7	62.7	62.7	24	25.4	1	4	112	0.00	30.283 
13:55	62.9	62.9	62.9	22	23.5	1	2	112	0.00	30.283 
14:00	63.1	63.1	63.1	27	28.6	1	3	112	0.00	30.278 
14:05	63.1	63.1	63.1	23	24.7	2	5	90	0.00	30.278 
14:10	63.1	63.1	63.1	22	23.6	1	4	135	0.00	30.278 
14:15	63.2	63.2	63.2	23	24.8	1	3	90	0.00	30.270 
14:20	63.4	63.4	63.4	23	25.0	1	3	90	0.00	30.270 
14:25	63.4	63.4	63.4	22	23.9	1	2	135	0.00	30.270 
14:30	63.7	63.7	63.7	22	24.1	1	4	90	0.00	30.262 
14:35	64.0	64.0	64.0	21	23.3	1	2	90	0.00	30.262 
14:40	63.7	63.7	63.7	19	20.7	2	4	90	0.00	30.262 
14:45	63.7	63.7	63.7	21	23.0	0	2	90	0.00	30.256 
14:50	64.0	64.0	64.0	20	22.1	1	3	180	0.00	30.256 
14:55	64.3	64.3	64.3	21	23.5	0	2	180	0.00	30.256 
15:00	64.5	64.5	64.5	21	23.7	0	2	338	0.00	30.248 
15:05	64.8	64.8	64.8	25	28.2	0	2	338	0.00	30.248 
15:10	65.3	65.3	65.3	22	25.5	1	3	248	0.00	30.248 
15:15	65.2	65.2	65.2	21	24.3	1	2	68	0.00	30.244 
15:20	65.3	65.3	65.3	19	22.0	1	4	68	0.00	30.244 
15:25	65.2	65.2	65.2	16	17.9	0	2	112	0.00	30.244 
15:30	64.8	64.8	64.8	19	21.6	2	6	112	0.00	30.233 
15:35	64.5	64.5	64.5	18	20.1	1	4	90	0.00	30.233 
15:40	64.5	64.5	64.5	20	22.5	1	2	90	0.00	30.233 
15:45	65.0	65.0	65.0	23	26.3	0	2	90	0.00	30.230 
15:50	65.5	65.5	65.5	22	25.6	1	4	270	0.00	30.230 
15:55	65.0	65.0	65.0	19	21.7	1	4	270	0.00	30.230 
16:00	64.8	64.8	64.8	19	21.6	0	1	112	0.00	30.230 
16:05	65.0	65.0	65.0	20	23.0	1	4	112	0.00	30.230 
16:10	65.2	65.2	65.2	22	25.4	1	2	225	0.00	30.230 
16:15	65.5	65.5	65.5	20	23.4	1	3	225	0.00	30.223 
16:20	65.3	65.3	65.3	17	19.4	2	4	248	0.00	30.223 
16:25	65.3	65.3	65.3	16	18.0	0	2	248	0.00	30.223 
16:30	65.0	65.0	65.0	18	20.5	1	4	90	0.00	30.216 
16:35	64.8	64.8	64.8	22	25.1	0	3	90	0.00	30.216 
16:40	64.7	64.7	64.7	17	18.9	1	3	90	0.00	30.216 
16:45	64.8	64.8	64.8	19	21.6	0	2	90	0.00	30.214 
16:50	64.7	64.7	64.7	19	21.5	1	3	90	0.00	30.214 
16:55	64.8	64.8	64.8	19	21.6	1	3	112	0.00	30.214 
17:00	65.2	65.2	65.2	19	21.9	0	2	248	0.00	30.215 
17:05	65.5	65.5	65.5	19	22.2	0	1	248	0.00	30.215 
17:10	65.5	65.5	65.5	21	24.5	0	4	68	0.00	30.215 
17:15	65.5	65.5	65.5	19	22.2	0	2	68	0.00	30.213 
17:20	65.5	65.5	65.5	18	20.9	0	3	68	0.00	30.213 
17:25	65.3	65.3	65.3	19	22.0	1	2	248	0.00	30.213 
17:30	65.3	65.3	65.3	19	22.0	0	3	248	0.00	30.202 
17:35	65.2	65.2	65.2	20	23.1	0	2	248	0.00	30.202 
17:40	65.2	65.2	65.2	20	23.1	0	1	248	0.00	30.202 
17:45	65.2	65.2	65.2	17	19.3	1	2	248	0.00	30.199 
17:50	65.3	65.3	65.3	17	19.4	1	3	248	0.00	30.199 
17:55	65.5	65.5	65.5	18	20.9	0	3	248	0.00	30.199 
18:00	65.8	65.8	65.8	17	19.8	0	2	248	0.00	30.194 
18:05	66.0	66.0	66.0	17	19.9	0	2	248	0.00	30.194 
18:10	65.8	65.8	65.8	19	22.4	0	2	248	0.00	30.194 
18:15	65.3	65.3	65.3	19	22.0	1	3	45	0.00	30.199 
18:20	65.0	65.0	65.0	17	19.1	0	1	45	0.00	30.199 
18:25	65.0	65.0	65.0	17	19.1	1	3	270	0.00	30.199 
18:30	65.0	65.0	65.0	17	19.1	1	3	270	0.00	30.196 
18:35	64.8	64.8	64.8	17	19.0	0	2	270	0.00	30.196 
18:40	64.7	64.7	64.7	18	20.2	0	3	270	0.00	30.196 
18:45	64.3	64.3	64.3	17	18.6	0	3	248	0.00	30.191 
18:50	64.2	64.2	64.2	18	19.8	0	2	248	0.00	30.191 
18:55	63.9	63.9	63.9	18	19.6	0	2	248	0.00	30.191 
19:00	63.5	63.5	63.5	20	21.7	0	1	248	0.00	30.185 
19:05	63.2	63.2	63.2	18	19.0	0	2	248	0.00	30.185 
19:10	63.1	63.1	63.1	18	18.9	0	2	248	0.00	30.185 
19:15	62.7	62.7	62.7	19	19.9	0	1	248	0.00	30.179 
19:20	62.4	62.4	62.4	20	20.8	0	1	248	0.00	30.179 
19:25	62.1	62.1	62.1	20	20.6	0	1	248	0.00	30.179 
19:30	61.6	61.6	61.6	19	19.0	0	0	---	0.00	30.174 
19:35	61.3	61.3	61.3	20	19.9	0	0	---	0.00	30.174 
19:40	60.9	60.9	60.9	20	19.6	0	0	---	0.00	30.174 
19:45	60.4	60.4	60.4	21	20.3	0	0	---	0.00	30.174 
19:50	59.9	59.9	59.9	20	18.7	0	0	---	0.00	30.174 
19:55	59.5	59.5	59.5	21	19.5	0	0	---	0.00	30.174 
20:00	58.9	58.9	58.9	22	20.1	0	0	---	0.00	30.175 
20:05	58.4	58.4	58.4	21	18.6	0	0	---	0.00	30.175 
20:10	58.1	58.1	58.1	22	19.5	0	0	---	0.00	30.175 
20:15	57.6	57.6	57.6	24	21.1	0	0	---	0.00	30.167 
20:20	57.2	57.2	57.2	25	21.7	0	0	---	0.00	30.167 
20:25	56.7	56.7	56.7	26	22.2	0	0	---	0.00	30.167 
20:30	56.2	56.2	56.2	27	22.7	0	0	---	0.00	30.163 
20:35	55.6	55.6	55.6	28	23.0	0	0	---	0.00	30.163 
20:40	55.1	55.1	55.1	27	21.7	0	0	---	0.00	30.163 
20:45	54.7	54.7	54.7	28	22.2	0	0	---	0.00	30.164 
20:50	54.2	54.2	54.2	29	22.6	0	0	---	0.00	30.164 
20:55	53.9	53.9	53.9	30	23.2	0	0	---	0.00	30.164 
21:00	53.6	53.6	53.6	28	21.3	0	0	---	0.00	30.168 
21:05	53.3	53.3	53.3	31	23.4	0	0	---	0.00	30.168 
21:10	53.1	53.1	53.1	31	23.3	0	0	---	0.00	30.168 
21:15	52.6	52.6	52.6	32	23.6	0	0	---	0.00	30.164 
21:20	52.3	52.3	52.3	32	23.3	0	0	---	0.00	30.164 
21:25	52.2	52.2	52.2	33	24.0	0	0	---	0.00	30.164 
21:30	51.9	51.9	51.9	33	23.7	0	0	---	0.00	30.167 
21:35	51.7	51.7	51.7	35	24.9	0	0	---	0.00	30.167 
21:40	51.4	51.4	51.4	37	26.0	0	0	---	0.00	30.167 
21:45	51.3	51.3	51.3	38	26.6	0	0	---	0.00	30.166 
21:50	51.0	51.0	51.0	36	25.0	0	0	---	0.00	30.166 
21:55	51.0	51.0	51.0	39	26.9	0	0	---	0.00	30.166 
22:00	51.0	51.0	51.0	40	27.5	0	0	---	0.00	30.165 
22:05	51.0	51.0	51.0	40	27.5	0	0	---	0.00	30.165 
22:10	50.8	50.8	50.8	42	28.5	0	0	---	0.00	30.165 
22:15	50.8	50.8	50.8	41	28.0	0	0	---	0.00	30.155 
22:20	50.5	50.5	50.5	41	27.7	0	0	---	0.00	30.155 
22:25	50.4	50.4	50.4	42	28.2	0	0	---	0.00	30.155 
22:30	50.4	50.4	50.4	43	28.8	0	0	---	0.00	30.151 
22:35	50.2	50.2	50.2	41	27.4	0	0	---	0.00	30.151 
22:40	50.2	50.2	50.2	39	26.2	0	0	---	0.00	30.151 
22:45	50.2	50.2	50.2	40	26.8	0	0	---	0.00	30.144 
22:50	50.2	50.2	50.2	39	26.2	0	0	---	0.00	30.144 
22:55	50.4	50.4	50.4	37	25.1	0	0	---	0.00	30.144 
23:00	50.5	50.5	50.5	36	24.6	0	0	---	0.00	30.135 
23:05	51.0	51.0	51.0	40	27.5	0	1	248	0.00	30.135 
23:10	51.9	51.9	51.9	31	22.2	1	2	248	0.00	30.135 
23:15	53.3	53.3	53.3	29	21.9	0	2	248	0.00	30.129 
23:20	54.4	54.4	54.4	28	22.0	0	1	248	0.00	30.129 
23:25	54.8	54.8	54.8	28	22.3	0	1	248	0.00	30.129 
23:30	55.3	55.3	55.3	28	22.8	0	1	248	0.00	30.127 
23:35	55.9	55.9	55.9	30	24.9	1	5	248	0.00	30.127 
23:40	56.6	56.6	56.6	31	26.3	2	5	248	0.00	30.127 
23:45	56.9	56.9	56.9	36	30.2	3	7	248	0.00	30.128 
23:50	56.7	56.7	56.7	39	32.0	2	5	248	0.00	30.128 
23:55	56.5	56.5	56.5	41	33.1	1	5	248	0.00	30.128 

CoCoRaHS
IN-AL-39
A2 Web Hosting
Creative Commons License
GoDaddy
search engine by freefind advanced

loaded 2018-11-15 13:38:23 • last modified 2010-11-18 10:43:29
Privacy PolicyDisclaimer
• wx.awcolley.com is powered by PmWiki v.2002016 •
• all content (unless otherwise noted) © 2018 A W Colley